createdAt,value
2023-04-12T00:01:52.651Z,5.57
2023-04-12T00:04:22.694Z,5.90
2023-04-12T00:06:49.302Z,6.47
2023-04-12T00:09:18.720Z,4.25
2023-04-12T00:11:45.187Z,3.55
2023-04-12T00:14:11.690Z,6.10
2023-04-12T00:16:38.969Z,5.43
2023-04-12T00:19:06.458Z,5.00
2023-04-12T00:21:33.053Z,2.67
2023-04-12T00:23:59.730Z,2.88
2023-04-12T00:26:26.291Z,5.43
2023-04-12T00:28:52.795Z,3.20
2023-04-12T00:31:21.286Z,5.63
2023-04-12T00:33:47.757Z,3.72
2023-04-12T00:36:14.264Z,5.85
2023-04-12T00:38:40.749Z,3.92
2023-04-12T00:41:07.192Z,6.25
2023-04-12T00:43:33.755Z,3.58
2023-04-12T00:46:01.737Z,5.03
2023-04-12T00:48:28.972Z,4.22
2023-04-12T00:50:58.419Z,4.45
2023-04-12T00:53:24.820Z,4.32
2023-04-12T00:55:52.434Z,3.45
2023-04-12T00:58:19.054Z,4.38
2023-04-12T01:00:51.066Z,3.88
2023-04-12T01:03:23.312Z,4.85
2023-04-12T01:05:59.360Z,5.30
2023-04-12T01:08:36.993Z,4.50
2023-04-12T01:11:03.518Z,5.10
2023-04-12T01:13:33.032Z,2.92
2023-04-12T01:16:28.700Z,4.43
2023-04-12T01:18:59.476Z,6.72
2023-04-12T01:21:45.276Z,3.40
2023-04-12T01:24:41.699Z,3.97
2023-04-12T01:27:15.635Z,5.47
2023-04-12T01:29:42.409Z,3.20
2023-04-12T01:32:10.039Z,6.45
2023-04-12T01:34:37.450Z,3.50
2023-04-12T01:37:03.921Z,5.10
2023-04-12T01:39:32.424Z,4.82
2023-04-12T01:41:58.821Z,2.85
2023-04-12T01:44:25.341Z,5.32
2023-04-12T01:46:52.997Z,5.82
2023-04-12T01:49:19.647Z,6.68
2023-04-12T01:51:58.403Z,8.32
2023-04-12T01:54:27.470Z,6.80
2023-04-12T01:56:58.930Z,6.47
2023-04-12T01:59:31.691Z,8.18
2023-04-12T02:01:58.451Z,9.23
2023-04-12T02:04:27.655Z,4.97
2023-04-12T02:06:54.216Z,4.72
2023-04-12T02:09:22.477Z,3.67
2023-04-12T02:11:49.803Z,5.78
2023-04-12T02:14:16.452Z,4.65
2023-04-12T02:16:44.693Z,3.72
2023-04-12T02:19:11.687Z,4.55
2023-04-12T02:21:44.457Z,5.28
2023-04-12T02:24:11.691Z,4.88
2023-04-12T02:26:38.574Z,5.32
2023-04-12T02:29:07.768Z,4.88
2023-04-12T02:31:35.430Z,4.28
2023-04-12T02:34:02.015Z,9.70
2023-04-12T02:36:29.193Z,7.80
2023-04-12T02:38:58.884Z,7.85
2023-04-12T02:41:25.583Z,6.82
2023-04-12T02:43:51.951Z,5.38
2023-04-12T02:46:25.454Z,5.25
2023-04-12T02:48:52.080Z,5.65
2023-04-12T02:51:18.608Z,8.95
2023-04-12T02:53:45.355Z,8.23
2023-04-12T02:56:12.167Z,5.75
2023-04-12T02:58:38.650Z,6.90
2023-04-12T03:01:07.965Z,4.80
2023-04-12T03:03:35.313Z,4.50
2023-04-12T03:06:01.957Z,6.00
2023-04-12T03:08:28.384Z,6.35
2023-04-12T03:10:55.006Z,9.38
2023-04-12T03:13:21.396Z,8.50
2023-04-12T03:15:49.550Z,9.82
2023-04-12T03:18:17.115Z,7.20
2023-04-12T03:20:46.007Z,5.50
2023-04-12T03:23:13.818Z,8.48
2023-04-12T03:25:41.153Z,6.88
2023-04-12T03:28:08.688Z,3.88
2023-04-12T03:30:35.190Z,6.40
2023-04-12T03:33:01.717Z,4.80
2023-04-12T03:35:28.424Z,4.95
2023-04-12T03:37:54.879Z,7.18
2023-04-12T03:40:21.504Z,5.03
2023-04-12T03:42:47.876Z,6.13
2023-04-12T03:45:14.329Z,4.47
2023-04-12T03:47:42.696Z,8.57
2023-04-12T03:50:12.250Z,6.55
2023-04-12T03:52:39.237Z,4.53
2023-04-12T03:55:07.388Z,7.25
2023-04-12T03:57:34.873Z,4.82
2023-04-12T04:00:01.523Z,7.68
2023-04-12T04:02:28.259Z,6.80
2023-04-12T04:04:57.720Z,7.45
2023-04-12T04:07:24.206Z,6.35
2023-04-12T04:09:51.040Z,3.83
2023-04-12T04:12:17.442Z,5.55
2023-04-12T04:14:44.052Z,10.65
2023-04-12T04:17:10.982Z,6.22
2023-04-12T04:19:37.369Z,6.05
2023-04-12T04:22:06.715Z,4.72
2023-04-12T04:24:34.245Z,4.90
2023-04-12T04:27:00.686Z,4.82
2023-04-12T04:29:28.630Z,7.22
2023-04-12T04:31:55.211Z,6.45
2023-04-12T04:34:22.348Z,6.95
2023-04-12T04:36:48.829Z,4.38
2023-04-12T04:39:17.109Z,4.25
2023-04-12T04:41:47.126Z,7.70
2023-04-12T04:44:14.328Z,6.60
2023-04-12T04:46:40.876Z,5.72
2023-04-12T04:49:07.324Z,7.68
2023-04-12T04:51:33.734Z,6.00
2023-04-12T04:54:00.536Z,14.30
2023-04-12T04:56:29.401Z,5.18
2023-04-12T04:58:57.246Z,6.53
2023-04-12T05:01:28.391Z,6.07
2023-04-12T05:03:55.869Z,6.35
2023-04-12T05:06:22.798Z,8.27
2023-04-12T05:08:49.227Z,5.25
2023-04-12T05:11:15.635Z,5.45
2023-04-12T05:13:42.005Z,13.40
2023-04-12T05:16:10.607Z,15.30
2023-04-12T05:18:37.022Z,16.52
2023-04-12T05:21:04.040Z,15.10
2023-04-12T05:23:31.252Z,12.60
2023-04-12T05:25:57.617Z,8.15
2023-04-12T05:28:24.030Z,8.05
2023-04-12T05:30:52.537Z,9.32
2023-04-12T05:33:18.994Z,10.95
2023-04-12T05:35:45.474Z,10.45
2023-04-12T05:38:12.006Z,10.27
2023-04-12T05:40:38.834Z,9.23
2023-04-12T05:43:05.312Z,9.23
2023-04-12T05:45:31.706Z,10.95
2023-04-12T05:47:58.136Z,8.32
2023-04-12T05:50:24.632Z,10.23
2023-04-12T05:52:51.464Z,7.15
2023-04-12T05:55:18.428Z,9.43
2023-04-12T05:57:45.492Z,6.40
2023-04-12T06:00:17.531Z,5.90
2023-04-12T06:02:47.934Z,6.55
2023-04-12T06:05:19.679Z,8.65
2023-04-12T06:07:49.315Z,9.52
2023-04-12T06:10:16.965Z,7.20
2023-04-12T06:12:43.514Z,7.68
2023-04-12T06:15:10.096Z,11.32
2023-04-12T06:17:36.874Z,9.02
2023-04-12T06:20:06.028Z,11.27
2023-04-12T06:22:32.685Z,6.90
2023-04-12T06:24:59.431Z,8.75
2023-04-12T06:27:26.826Z,10.88
2023-04-12T06:29:53.811Z,11.00
2023-04-12T06:32:20.213Z,12.18
2023-04-12T06:34:47.413Z,9.18
2023-04-12T06:37:13.854Z,9.20
2023-04-12T06:39:40.339Z,9.32
2023-04-12T06:42:06.742Z,7.78
2023-04-12T06:44:33.714Z,5.90
2023-04-12T06:47:00.257Z,6.53
2023-04-12T06:49:27.142Z,6.35
2023-04-12T06:51:53.557Z,9.65
2023-04-12T06:54:20.032Z,8.70
2023-04-12T06:56:46.424Z,11.02
2023-04-12T06:59:12.817Z,7.65
2023-04-12T07:01:40.856Z,6.78
2023-04-12T07:04:08.347Z,4.32
2023-04-12T07:06:35.110Z,8.70
2023-04-12T07:09:01.674Z,9.75
2023-04-12T07:11:28.713Z,7.78
2023-04-12T07:13:55.221Z,4.32
2023-04-12T07:16:21.684Z,5.50
2023-04-12T07:18:48.542Z,4.53
2023-04-12T07:21:17.442Z,4.45
2023-04-12T07:23:44.430Z,6.18
2023-04-12T07:26:10.977Z,8.55
2023-04-12T07:28:39.088Z,6.18
2023-04-12T07:31:06.315Z,5.40
2023-04-12T07:33:34.849Z,7.95
2023-04-12T07:36:01.870Z,3.55
2023-04-12T07:38:28.372Z,7.30
2023-04-12T07:40:55.540Z,3.97
2023-04-12T07:43:22.223Z,4.20
2023-04-12T07:45:49.362Z,2.63
2023-04-12T07:48:16.249Z,7.97
2023-04-12T07:50:42.713Z,4.68
2023-04-12T07:53:19.943Z,5.50
2023-04-12T07:55:47.402Z,3.58
2023-04-12T07:58:14.106Z,3.42
2023-04-12T08:00:40.702Z,7.70
2023-04-12T08:03:07.251Z,4.75
2023-04-12T08:05:34.429Z,6.13
2023-04-12T08:08:00.921Z,2.58
2023-04-12T08:10:27.372Z,4.68
2023-04-12T08:12:53.750Z,2.85
2023-04-12T08:15:20.391Z,5.30
2023-04-12T08:17:48.094Z,4.28
2023-04-12T08:20:15.648Z,6.97
2023-04-12T08:22:42.654Z,4.18
2023-04-12T08:25:09.302Z,3.85
2023-04-12T08:27:36.184Z,4.93
2023-04-12T08:30:03.941Z,5.90
2023-04-12T08:32:30.557Z,7.82
2023-04-12T08:34:57.256Z,4.35
2023-04-12T08:37:23.746Z,7.30
2023-04-12T08:39:50.319Z,10.23
2023-04-12T08:42:17.049Z,8.38
2023-04-12T08:44:43.873Z,7.75
2023-04-12T08:47:11.257Z,9.32
2023-04-12T08:49:39.499Z,9.02
2023-04-12T08:52:09.897Z,6.07
2023-04-12T08:54:36.671Z,8.38
2023-04-12T08:57:05.024Z,4.70
2023-04-12T08:59:31.809Z,8.65
2023-04-12T09:01:58.972Z,8.60
2023-04-12T09:04:29.594Z,8.40
2023-04-12T09:06:56.164Z,7.95
2023-04-12T09:09:55.018Z,5.47
2023-04-12T09:12:24.101Z,8.18
2023-04-12T09:15:09.181Z,8.75
2023-04-12T09:17:39.157Z,5.57
2023-04-12T09:20:23.642Z,5.70
2023-04-12T09:22:50.405Z,7.20
2023-04-12T09:25:16.849Z,7.47
2023-04-12T09:27:52.377Z,9.18
2023-04-12T09:30:19.771Z,9.82
2023-04-12T09:32:46.713Z,4.85
2023-04-12T09:35:13.101Z,8.05
2023-04-12T09:37:40.195Z,7.07
2023-04-12T09:40:07.802Z,6.75
2023-04-12T09:42:34.961Z,8.70
2023-04-12T09:45:18.360Z,4.00
2023-04-12T09:47:44.843Z,4.43
2023-04-12T09:50:19.541Z,8.07
2023-04-12T09:52:46.004Z,8.43
2023-04-12T09:55:13.028Z,5.55
2023-04-12T09:57:43.293Z,7.18
2023-04-12T10:00:20.243Z,5.63
2023-04-12T10:02:51.707Z,5.53
2023-04-12T10:05:20.781Z,11.07
2023-04-12T10:07:47.694Z,8.68
2023-04-12T10:10:15.568Z,3.25
2023-04-12T10:12:42.730Z,8.25
2023-04-12T10:15:17.700Z,6.75
2023-04-12T10:17:46.431Z,8.75
2023-04-12T10:21:14.024Z,7.05
2023-04-12T10:23:10.771Z,6.75
2023-04-12T10:25:38.364Z,6.10
2023-04-12T10:28:14.492Z,3.30
2023-04-12T10:30:41.088Z,8.30
2023-04-12T10:33:08.392Z,6.40
2023-04-12T10:35:51.189Z,7.93
2023-04-12T10:38:17.852Z,4.75
2023-04-12T10:41:07.643Z,7.32
2023-04-12T10:43:34.131Z,3.33
2023-04-12T10:46:04.981Z,7.82
2023-04-12T10:48:38.617Z,6.10
2023-04-12T10:51:26.757Z,5.88
2023-04-12T10:54:13.539Z,4.65
2023-04-12T10:56:44.127Z,5.13
2023-04-12T10:59:11.236Z,5.57
2023-04-12T11:01:39.242Z,3.67
2023-04-12T11:04:10.916Z,8.57
2023-04-12T11:06:40.546Z,6.28
2023-04-12T11:09:09.820Z,4.35
2023-04-12T11:11:36.301Z,3.72
2023-04-12T11:14:02.984Z,6.57
2023-04-12T11:16:29.652Z,3.78
2023-04-12T11:18:56.524Z,5.53
2023-04-12T11:21:24.013Z,3.42
2023-04-12T11:23:53.650Z,4.75
2023-04-12T11:26:21.216Z,4.18
2023-04-12T11:28:48.347Z,4.88
2023-04-12T11:31:15.221Z,8.18
2023-04-12T11:33:41.880Z,9.70
2023-04-12T11:36:14.527Z,3.78
2023-04-12T11:38:41.294Z,4.68
2023-04-12T11:41:08.258Z,3.65
2023-04-12T11:43:35.614Z,4.50
2023-04-12T11:46:02.324Z,3.97
2023-04-12T11:48:29.000Z,4.50
2023-04-12T11:51:10.268Z,4.30
2023-04-12T11:53:37.960Z,5.95
2023-04-12T11:56:04.467Z,4.55
2023-04-12T11:58:30.878Z,4.88
2023-04-12T12:00:58.524Z,4.47
2023-04-12T12:03:25.240Z,3.60
2023-04-12T12:05:52.254Z,2.83
2023-04-12T12:08:19.336Z,6.13
2023-04-12T12:11:04.136Z,2.67
2023-04-12T12:13:48.606Z,5.32
2023-04-12T12:16:15.230Z,5.68
2023-04-12T12:18:42.658Z,4.38
2023-04-12T12:21:09.988Z,3.58
2023-04-12T12:23:38.974Z,3.13
2023-04-12T12:26:18.334Z,2.55
2023-04-12T12:28:48.742Z,8.70
2023-04-12T12:31:18.714Z,4.75
2023-04-12T12:34:00.309Z,3.67
2023-04-12T12:36:33.725Z,3.63
2023-04-12T12:39:18.140Z,3.33
2023-04-12T12:41:44.522Z,3.20
2023-04-12T12:44:11.416Z,2.58
2023-04-12T12:49:08.661Z,4.03
2023-04-12T12:51:35.246Z,3.90
2023-04-12T12:54:01.636Z,2.83
2023-04-12T12:56:28.179Z,3.85
2023-04-12T12:58:54.586Z,4.43
2023-04-12T13:01:21.150Z,4.45
2023-04-12T13:03:47.864Z,3.55
2023-04-12T13:06:14.303Z,5.07
2023-04-12T13:08:41.016Z,3.15
2023-04-12T13:11:07.530Z,6.72
2023-04-12T13:13:33.994Z,2.78
2023-04-12T13:16:00.525Z,2.85
2023-04-12T13:18:26.994Z,2.22
2023-04-12T13:20:53.374Z,5.35
2023-04-12T13:23:19.840Z,3.35
2023-04-12T13:25:46.411Z,3.47
2023-04-12T13:28:12.947Z,2.47
2023-04-12T13:30:39.481Z,3.30
2023-04-12T13:33:05.924Z,3.70
2023-04-12T13:35:32.460Z,4.65
2023-04-12T13:37:58.860Z,2.33
2023-04-12T13:40:25.264Z,4.20
2023-04-12T13:42:51.655Z,6.90
2023-04-12T13:45:21.160Z,3.03
2023-04-12T13:47:47.587Z,2.75
2023-04-12T13:50:14.125Z,4.43
2023-04-12T13:52:43.380Z,2.78
2023-04-12T13:55:09.977Z,3.78
2023-04-12T13:57:36.552Z,6.13
2023-04-12T14:00:03.105Z,3.08
2023-04-12T14:02:31.974Z,3.80
2023-04-12T14:04:58.933Z,4.45
2023-04-12T14:07:25.494Z,2.85
2023-04-12T14:09:51.867Z,1.90
2023-04-12T14:12:18.263Z,2.92
2023-04-12T14:14:44.672Z,7.13
2023-04-12T14:17:11.350Z,2.50
2023-04-12T14:19:37.962Z,4.38
2023-04-12T14:22:04.645Z,2.95
2023-04-12T14:24:31.476Z,2.05
2023-04-12T14:26:59.418Z,2.85
2023-04-12T14:29:26.713Z,3.13
2023-04-12T14:31:53.182Z,2.00
2023-04-12T14:34:19.604Z,3.00
2023-04-12T14:36:46.060Z,5.10
2023-04-12T14:39:14.085Z,8.23
2023-04-12T14:41:41.421Z,7.57
2023-04-12T14:44:07.885Z,3.33
2023-04-12T14:46:34.358Z,4.80
2023-04-12T14:49:01.411Z,4.53
2023-04-12T14:51:28.967Z,3.15
2023-04-12T14:53:55.666Z,3.25
2023-04-12T14:56:24.984Z,2.30
2023-04-12T14:58:56.576Z,4.97
2023-04-12T15:01:23.796Z,1.55
2023-04-12T15:03:51.866Z,3.70
2023-04-12T15:06:19.099Z,3.30
2023-04-12T15:08:45.737Z,4.80
2023-04-12T15:11:12.737Z,4.82
2023-04-12T15:13:41.863Z,3.38
2023-04-12T15:16:09.220Z,4.95
2023-04-12T15:18:38.056Z,4.18
2023-04-12T15:21:08.650Z,2.95
2023-04-12T15:23:35.702Z,2.40
2023-04-12T15:26:02.286Z,5.45
2023-04-12T15:28:32.888Z,3.50
2023-04-12T15:30:59.631Z,2.78
2023-04-12T15:33:26.278Z,2.47
2023-04-12T15:35:55.742Z,1.55
2023-04-12T15:38:23.746Z,2.80
2023-04-12T15:40:57.361Z,1.83
2023-04-12T15:43:24.098Z,2.45
2023-04-12T15:45:53.207Z,1.65
2023-04-12T15:48:20.594Z,1.95
2023-04-12T15:50:48.616Z,4.65
2023-04-12T15:53:16.264Z,3.95
2023-04-12T15:55:45.765Z,10.98
2023-04-12T15:58:12.168Z,0.85
2023-04-12T16:00:38.705Z,2.38
2023-04-12T16:03:07.585Z,2.75
2023-04-12T16:05:34.705Z,2.17
2023-04-12T16:08:01.301Z,1.67
2023-04-12T16:10:28.159Z,3.03
2023-04-12T16:12:57.929Z,1.35
2023-04-12T16:15:24.528Z,2.13
2023-04-12T16:20:49.672Z,2.60
2023-04-12T16:23:16.733Z,3.33
2023-04-12T16:25:43.150Z,3.05
2023-04-12T16:28:12.243Z,1.92
2023-04-12T16:30:38.768Z,2.22
2023-04-12T16:33:05.427Z,5.40
2023-04-12T16:35:32.020Z,11.43
2023-04-12T16:37:58.433Z,5.30
2023-04-12T16:40:25.856Z,2.55
2023-04-12T16:42:52.276Z,3.72
2023-04-12T16:45:19.641Z,1.75
2023-04-12T16:47:46.878Z,3.00
2023-04-12T16:50:13.717Z,1.88
2023-04-12T16:52:41.389Z,3.70
2023-04-12T16:55:10.928Z,2.78
2023-04-12T16:57:39.314Z,2.47
2023-04-12T17:00:20.560Z,2.67
2023-04-12T17:02:51.124Z,2.60
2023-04-12T17:05:18.298Z,2.83
2023-04-12T17:07:47.793Z,2.60
2023-04-12T17:10:17.413Z,3.78
2023-04-12T17:12:44.721Z,3.55
2023-04-12T17:15:12.472Z,3.35
2023-04-12T17:17:38.977Z,0.93
2023-04-12T17:20:10.524Z,1.40
2023-04-12T17:22:37.102Z,2.03
2023-04-12T17:25:06.869Z,2.28
2023-04-12T17:27:37.612Z,4.18
2023-04-12T17:30:05.548Z,2.00
2023-04-12T17:32:32.749Z,5.85
2023-04-12T17:34:59.524Z,2.13
2023-04-12T17:37:28.471Z,1.27
2023-04-12T17:39:55.418Z,3.65
2023-04-12T17:42:22.463Z,4.25
2023-04-12T17:44:48.972Z,4.07
2023-04-12T17:47:15.875Z,3.60
2023-04-12T17:49:42.736Z,2.40
2023-04-12T17:52:11.006Z,3.63
2023-04-12T17:54:40.236Z,3.30
2023-04-12T17:57:06.734Z,4.00
2023-04-12T17:59:33.180Z,3.25
2023-04-12T18:02:01.608Z,3.10
2023-04-12T18:04:29.116Z,4.25
2023-04-12T18:06:59.015Z,3.97
2023-04-12T18:09:27.118Z,2.38
2023-04-12T18:11:53.514Z,3.67
2023-04-12T18:14:20.421Z,2.97
2023-04-12T18:16:47.135Z,3.80
2023-04-12T18:19:15.605Z,4.38
2023-04-12T18:21:42.349Z,3.03
2023-04-12T18:24:08.960Z,3.40
2023-04-12T18:26:35.508Z,3.63
2023-04-12T18:29:05.016Z,3.53
2023-04-12T18:31:32.169Z,6.20
2023-04-12T18:33:59.037Z,5.30
2023-04-12T18:36:27.222Z,4.43
2023-04-12T18:38:53.646Z,3.05
2023-04-12T18:41:22.397Z,2.58
2023-04-12T18:43:49.154Z,4.80
2023-04-12T18:46:20.230Z,3.65
2023-04-12T18:48:48.300Z,2.30
2023-04-12T18:51:15.079Z,2.78
2023-04-12T18:53:41.592Z,2.95
2023-04-12T18:56:08.908Z,7.22
2023-04-12T19:03:56.372Z,3.00
2023-04-12T19:06:23.154Z,3.97
2023-04-12T19:08:50.426Z,3.03
2023-04-12T19:11:17.089Z,1.63
2023-04-12T19:13:44.247Z,6.57
2023-04-12T19:18:54.522Z,3.03
2023-04-12T19:21:22.077Z,4.38
2023-04-12T19:23:48.732Z,2.35
2023-04-12T19:26:17.140Z,2.40
2023-04-12T19:28:45.826Z,4.22
2023-04-12T19:31:14.261Z,2.40
2023-04-12T19:33:41.530Z,2.47
2023-04-12T19:36:08.606Z,3.30
2023-04-12T19:47:11.157Z,2.92
2023-04-12T19:49:38.503Z,4.55
2023-04-12T19:52:05.725Z,2.47
2023-04-12T19:54:32.658Z,4.18
2023-04-12T19:56:59.096Z,2.92
2023-04-12T19:59:27.734Z,2.90
2023-04-12T20:01:56.033Z,1.08
2023-04-12T20:04:24.157Z,1.50
2023-04-12T20:06:54.868Z,6.10
2023-04-12T20:09:24.701Z,3.55
2023-04-12T20:11:51.409Z,1.45
2023-04-12T20:20:14.751Z,3.05
2023-04-12T20:25:48.815Z,4.00
2023-04-12T20:28:22.860Z,2.58
2023-04-12T20:45:36.071Z,6.15
2023-04-12T20:48:06.248Z,5.43
2023-04-12T20:50:33.360Z,7.95
2023-04-12T20:53:21.199Z,7.07
2023-04-12T20:55:47.721Z,6.43
2023-04-12T20:58:22.246Z,7.85
2023-04-12T21:00:49.565Z,5.05
2023-04-12T21:03:16.292Z,3.65
2023-04-12T21:05:42.874Z,2.50
2023-04-12T21:08:14.920Z,2.00
2023-04-12T21:10:51.580Z,2.78
2023-04-12T21:13:35.906Z,2.38
2023-04-12T21:16:04.961Z,2.30
2023-04-12T21:18:41.507Z,2.08
2023-04-12T21:21:10.416Z,2.67
2023-04-12T21:23:37.180Z,1.20
2023-04-12T21:26:04.351Z,4.00
2023-04-12T21:28:31.215Z,1.48
2023-04-12T21:31:06.047Z,3.78
2023-04-12T21:33:36.890Z,2.95
2023-04-12T21:36:04.520Z,1.77
2023-04-12T21:38:31.481Z,3.25
2023-04-12T21:41:04.506Z,2.80
2023-04-12T21:43:31.316Z,1.67
2023-04-12T21:45:58.836Z,4.97
2023-04-12T21:48:26.052Z,3.63
2023-04-12T21:50:55.668Z,3.33
2023-04-12T21:53:23.098Z,1.60
2023-04-12T21:55:51.025Z,3.03
2023-04-12T21:58:19.928Z,3.33
2023-04-12T22:00:50.662Z,2.17
2023-04-12T22:03:17.744Z,3.05
2023-04-12T22:05:51.051Z,3.88
2023-04-12T22:08:24.127Z,2.90
2023-04-12T22:10:51.920Z,1.83
2023-04-12T22:13:18.613Z,3.42
2023-04-12T22:15:45.305Z,3.13
2023-04-12T22:18:14.427Z,1.88
2023-04-12T22:20:41.528Z,2.05
2023-04-12T22:23:08.549Z,1.42
2023-04-12T22:25:36.191Z,1.90
2023-04-12T22:28:02.914Z,2.20
2023-04-12T22:30:30.996Z,1.52
2023-04-12T22:32:59.900Z,2.65
2023-04-12T22:35:27.423Z,2.35
2023-04-12T22:37:54.268Z,1.45
2023-04-12T22:40:20.899Z,3.17
2023-04-12T22:42:48.356Z,2.03
2023-04-12T22:45:15.821Z,2.78
2023-04-12T22:47:43.304Z,1.33
2023-04-12T22:50:10.861Z,2.28
2023-04-12T22:52:40.650Z,3.55
2023-04-12T22:55:08.742Z,3.30
2023-04-12T22:57:36.588Z,1.50
2023-04-12T23:00:06.282Z,2.40
2023-04-12T23:02:34.101Z,4.25
2023-04-12T23:05:03.812Z,1.55
2023-04-12T23:07:31.498Z,5.00
2023-04-12T23:10:03.093Z,2.10
2023-04-12T23:12:32.695Z,2.10
2023-04-12T23:14:59.792Z,2.65
2023-04-12T23:17:26.913Z,1.35
2023-04-12T23:19:53.726Z,2.15
2023-04-12T23:22:48.582Z,2.97
2023-04-12T23:25:21.079Z,3.35
2023-04-12T23:27:48.315Z,2.13
2023-04-12T23:30:15.340Z,1.98
2023-04-12T23:32:41.936Z,2.40
2023-04-12T23:35:08.931Z,1.63
2023-04-12T23:37:36.149Z,1.92
2023-04-12T23:40:08.476Z,1.45
2023-04-12T23:42:35.778Z,3.85
2023-04-12T23:45:03.687Z,3.28
2023-04-12T23:47:30.402Z,5.03
2023-04-12T23:49:57.067Z,4.07
2023-04-12T23:52:23.954Z,1.40
2023-04-12T23:54:50.632Z,3.65
2023-04-12T23:57:17.188Z,2.00
2023-04-12T23:59:43.725Z,1.50
